Rochester, NY (14612)

8:04 PM EDT on July 27, 2016 (GMT -0400)
Pebbleview | | Change Station

Elev 285 ft 43.26 °N, 77.63 °W | Updated 13 minutes ago

Mostly Cloudy
Mostly Cloudy
84.9 °F
Feels Like 88 °F
N
5.8
Wind Variable Wind from West

Today
High -- | Low -- °F
--% Chance of Precip.
Yesterday
High -- | Low -- °F
Precip. -- in
Pressure 29.91 in
Visibility 10.0 miles
Clouds Scattered Clouds 4500 ft
Scattered Clouds 8000 ft
Mostly Cloudy 25000 ft
Heat Index 88 °F
Dew Point 67 °F
Humidity 55%
Rainfall 0.00 in
Snow Depth Not available.
5:56 AM 8:37 PM
Last Quarter, 38% visible
METAR KROC 272354Z 28010KT 10SM SCT045 SCT080 BKN250 29/15 A2992 RMK AO2 SLP127 T02890150 10328 20289 53004
Pressure 29.91 in
Visibility 10.0 miles
Clouds Scattered Clouds 4500 ft
Scattered Clouds 8000 ft
Mostly Cloudy 25000 ft
Heat Index 88 °F
Dew Point 67 °F
Humidity 55%
Rainfall 0.00 in
Snow Depth Not available.
5:56 AM 8:37 PM
Last Quarter, 38% visible
METAR KROC 272354Z 28010KT 10SM SCT045 SCT080 BKN250 29/15 A2992 RMK AO2 SLP127 T02890150 10328 20289 53004

10-Day Weather Forecast

Almanac

Astronomy

Jul. 27, 2016 Rise Set
Actual Time
Civil Twilight
Nautical Twilight
Astronomical Twilight
Moon
Length of Visible Light
Length of Day
Tomorrow will be .
, % of the Moon is Illuminated

Today's Extremes

State Highs State Lows

Community

WunderPhotos

Upload Photos

1,927,963 photos uploaded!

WunderBlog® & News

Nearby

Air Quality

  Air Quality AQ Index Pollutant
Not available.

Snow Depth

Station Depth Elevation

Earthquake Activity

City Distance Mag. Time & Date
Minimum magnitude displayed is 2.5.

Coastal Water Temperatures

Place Temperature

Stations

Nearby Weather Stations

Station Location Temp. Windchill Dew Point Humidity Wind Precip. Elev Updated Type
                   

Watches & Warnings

There are currently no watches in effect.